Time;durP1;ratioP1;P1;durP2;ratioP2;P2;SDS_P1;SDS_P2;PMS_P1;PMS_P2;Temp;Humidity;BMP_temperature;BMP_pressure;BME280_temperature;BME280_humidity;BME280_pressure;Samples;Min_cycle;Max_cycle;Signal;HPM_P1;HPM_P2
2021/04/24 00:02:26;;;;;;;7.97;3.23;;;;;;;7.16;100.00;102768.23;1907254;75;26335;-76
2021/04/24 00:04:56;;;;;;;7.07;2.60;;;;;;;6.99;100.00;102775.27;1907343;75;26700;-75
2021/04/24 00:07:27;;;;;;;4.30;2.80;;;;;;;7.10;100.00;102777.41;1907229;75;26355;-75
2021/04/24 00:09:57;;;;;;;5.50;3.10;;;;;;;7.06;100.00;102770.05;1907317;75;26660;-75
2021/04/24 00:12:26;;;;;;;5.40;2.87;;;;;;;7.16;100.00;102773.76;1909906;75;26342;-75
2021/04/24 00:14:56;;;;;;;5.37;3.13;;;;;;;6.98;100.00;102777.72;1907247;75;26218;-76
2021/04/24 00:17:26;;;;;;;7.37;2.70;;;;;;;7.03;100.00;102780.16;1907258;75;26729;-75
2021/04/24 00:19:56;;;;;;;5.70;3.13;;;;;;;6.86;100.00;102782.52;1907432;75;26230;-75
2021/04/24 00:22:26;;;;;;;6.20;2.90;;;;;;;6.80;100.00;102779.22;1907345;75;26330;-75
2021/04/24 00:24:56;;;;;;;5.00;2.80;;;;;;;6.90;100.00;102780.70;1907327;75;26304;-75
2021/04/24 00:27:26;;;;;;;4.60;3.23;;;;;;;7.16;100.00;102769.09;1907267;75;26210;-75
2021/04/24 00:29:56;;;;;;;6.87;3.10;;;;;;;6.83;100.00;102758.63;1907248;75;26218;-75
2021/04/24 00:32:26;;;;;;;7.07;3.33;;;;;;;7.04;100.00;102765.29;1907327;75;26693;-76
2021/04/24 00:34:55;;;;;;;5.73;3.33;;;;;;;7.03;100.00;102770.48;1907272;75;26234;-76
2021/04/24 00:37:26;;;;;;;6.83;3.60;;;;;;;6.98;100.00;102766.14;1907267;75;26477;-77
2021/04/24 00:39:55;;;;;;;4.77;2.73;;;;;;;6.76;100.00;102771.59;1907326;75;26681;-76
2021/04/24 00:42:25;;;;;;;4.07;2.97;;;;;;;6.92;100.00;102771.69;1907237;75;26216;-76
2021/04/24 00:44:56;;;;;;;5.30;3.07;;;;;;;6.80;100.00;102771.48;1907269;75;26261;-76
2021/04/24 00:47:27;;;;;;;8.47;3.57;;;;;;;6.83;100.00;102771.05;1907249;75;26680;-76
2021/04/24 00:49:57;;;;;;;7.17;3.17;;;;;;;6.66;100.00;102774.78;1907244;75;26693;-76
2021/04/24 00:52:27;;;;;;;5.53;3.07;;;;;;;6.69;100.00;102774.34;1907145;75;26669;-76
2021/04/24 00:54:57;;;;;;;6.87;2.93;;;;;;;6.82;100.00;102775.72;1907252;75;26191;-76
2021/04/24 00:57:28;;;;;;;6.83;3.13;;;;;;;6.94;100.00;102774.53;1907278;75;26187;-76
2021/04/24 00:59:58;;;;;;;9.20;3.33;;;;;;;6.80;100.00;102778.39;1907327;75;26198;-75
2021/04/24 01:02:28;;;;;;;7.40;3.07;;;;;;;6.51;100.00;102774.64;1907275;75;26704;-75
2021/04/24 01:04:58;;;;;;;6.40;3.43;;;;;;;6.50;100.00;102776.59;1907226;75;26191;-75
2021/04/24 01:07:28;;;;;;;7.30;4.03;;;;;;;6.69;100.00;102773.49;1907214;75;26238;-75
2021/04/24 01:09:58;;;;;;;6.60;3.53;;;;;;;6.39;100.00;102772.52;1907391;75;26214;-75
2021/04/24 01:12:28;;;;;;;6.37;3.10;;;;;;;6.34;100.00;102770.92;1907210;75;26666;-75
2021/04/24 01:14:58;;;;;;;7.50;2.90;;;;;;;6.24;100.00;102773.27;1907315;75;26664;-75
2021/04/24 01:17:27;;;;;;;8.00;3.40;;;;;;;6.33;100.00;102768.39;1907333;75;26190;-75
2021/04/24 01:19:57;;;;;;;6.40;3.50;;;;;;;6.27;100.00;102762.32;1907411;75;26627;-77
2021/04/24 01:22:28;;;;;;;6.67;3.40;;;;;;;6.27;100.00;102762.32;1907309;75;26194;-76
2021/04/24 01:24:58;;;;;;;9.43;3.17;;;;;;;6.28;100.00;102762.65;1907227;75;26183;-76
2021/04/24 01:27:27;;;;;;;5.97;2.80;;;;;;;6.24;100.00;102758.61;1907245;75;26191;-77
2021/04/24 01:29:57;;;;;;;10.73;3.90;;;;;;;6.34;100.00;102751.60;1907218;75;26223;-77
2021/04/24 01:32:27;;;;;;;10.73;3.43;;;;;;;6.14;100.00;102762.30;1907279;75;26183;-76
2021/04/24 01:34:57;;;;;;;6.13;3.40;;;;;;;6.10;100.00;102754.97;1907276;75;26273;-76
2021/04/24 01:37:28;;;;;;;6.93;3.03;;;;;;;5.95;100.00;102753.75;1907285;75;26182;-76
2021/04/24 01:39:58;;;;;;;4.03;2.80;;;;;;;5.94;100.00;102746.56;1907309;75;26685;-76
2021/04/24 01:42:28;;;;;;;5.60;3.10;;;;;;;6.06;100.00;102748.70;1907176;75;26316;-76
2021/04/24 01:44:59;;;;;;;8.80;3.37;;;;;;;6.12;100.00;102750.63;1907194;75;26305;-76
2021/04/24 01:47:29;;;;;;;6.77;3.20;;;;;;;6.18;100.00;102751.16;1907193;75;26194;-76
2021/04/24 01:49:59;;;;;;;5.93;3.37;;;;;;;5.83;100.00;102746.27;1907186;75;26199;-76
2021/04/24 01:52:34;;;;;;;6.23;3.20;;;;;;;5.62;100.00;102748.64;1907143;75;26727;-76
2021/04/24 01:55:07;;;;;;;5.53;3.53;;;;;;;5.65;100.00;102740.50;1907221;75;26266;-77
2021/04/24 01:57:38;;;;;;;5.50;2.97;;;;;;;5.75;100.00;102735.42;1907286;75;26198;-76
2021/04/24 02:00:21;;;;;;;10.73;3.43;;;;;;;5.65;100.00;102737.19;1907284;75;26183;-76
2021/04/24 02:02:51;;;;;;;7.20;3.10;;;;;;;5.59;100.00;102728.91;1907121;75;26243;-75
2021/04/24 02:05:21;;;;;;;5.80;3.93;;;;;;;5.68;100.00;102728.52;1907254;75;26249;-75
2021/04/24 02:08:00;;;;;;;6.07;3.23;;;;;;;5.67;100.00;102722.68;1907351;75;26774;-75
2021/04/24 02:10:30;;;;;;;11.90;3.73;;;;;;;5.69;100.00;102725.24;1907184;74;26638;-76
2021/04/24 02:13:04;;;;;;;7.10;3.23;;;;;;;5.69;100.00;102728.00;1907255;75;26249;-75
2021/04/24 02:15:33;;;;;;;4.40;3.10;;;;;;;5.34;100.00;102722.56;1907295;75;26264;-76
2021/04/24 02:18:05;;;;;;;6.90;3.67;;;;;;;5.39;100.00;102725.53;1907196;75;26269;-76
2021/04/24 02:20:35;;;;;;;3.83;2.97;;;;;;;5.32;100.00;102723.28;1907297;75;26637;-76
2021/04/24 02:23:06;;;;;;;5.33;3.20;;;;;;;5.39;100.00;102715.88;1907203;75;26712;-76
2021/04/24 02:25:35;;;;;;;7.97;3.40;;;;;;;5.35;100.00;102729.75;1907303;75;26187;-76
2021/04/24 02:28:06;;;;;;;6.80;3.40;;;;;;;5.35;100.00;102725.62;1907188;75;26194;-76
2021/04/24 02:30:36;;;;;;;6.20;3.70;;;;;;;5.44;100.00;102723.01;1907169;75;26226;-76
2021/04/24 02:33:08;;;;;;;7.20;3.37;;;;;;;5.39;100.00;102725.53;1907147;75;26846;-76
2021/04/24 02:35:45;;;;;;;7.47;3.57;;;;;;;5.35;100.00;102728.37;1907244;75;26264;-76
2021/04/24 02:38:17;;;;;;;4.20;3.33;;;;;;;5.31;100.00;102724.33;1907190;75;26245;-76
2021/04/24 02:40:49;;;;;;;7.90;4.17;;;;;;;5.30;100.00;102724.03;1907200;75;26261;-76
2021/04/24 02:43:19;;;;;;;6.23;4.50;;;;;;;5.27;100.00;102723.56;1907156;75;26206;-76
2021/04/24 02:45:49;;;;;;;5.60;3.73;;;;;;;5.40;100.00;102721.72;1907157;75;26625;-76
2021/04/24 02:48:20;;;;;;;10.03;3.73;;;;;;;5.36;100.00;102719.58;1907260;75;26357;-75
2021/04/24 02:50:52;;;;;;;7.87;3.47;;;;;;;5.40;100.00;102720.34;1907236;75;26206;-75
2021/04/24 02:53:22;;;;;;;7.47;3.70;;;;;;;5.41;100.00;102717.92;1907159;75;26681;-75
2021/04/24 02:55:52;;;;;;;7.33;4.40;;;;;;;5.34;100.00;102722.56;1907145;75;26298;-75
2021/04/24 02:58:22;;;;;;;7.97;4.27;;;;;;;5.39;100.00;102724.70;1948402;74;26652;-75
2021/04/24 03:00:52;;;;;;;6.73;4.07;;;;;;;5.26;100.00;102721.33;1894629;75;26183;-75
2021/04/24 03:03:21;;;;;;;7.67;3.80;;;;;;;5.24;100.00;102720.70;1907205;74;26280;-75
2021/04/24 03:05:54;;;;;;;6.50;3.37;;;;;;;5.04;100.00;102728.02;1907375;75;26592;-75
2021/04/24 03:08:23;;;;;;;4.87;3.90;;;;;;;5.02;100.00;102725.98;1907278;75;26637;-75
2021/04/24 03:10:53;;;;;;;9.67;3.67;;;;;;;5.14;100.00;102727.63;1856839;77;26220;-75
2021/04/24 03:13:22;;;;;;;6.83;4.07;;;;;;;5.10;100.00;102716.17;1913440;75;26182;-75
2021/04/24 03:15:52;;;;;;;5.93;3.60;;;;;;;5.21;100.00;102724.39;1907199;75;26227;-75
2021/04/24 03:18:22;;;;;;;8.47;3.33;;;;;;;5.11;100.00;102723.38;1907261;75;26187;-75
2021/04/24 03:20:52;;;;;;;10.03;4.00;;;;;;;5.17;100.00;102721.20;1907372;75;26249;-76
2021/04/24 03:23:22;;;;;;;7.93;3.83;;;;;;;5.18;100.00;102727.56;1907264;75;26190;-75
2021/04/24 03:25:52;;;;;;;6.70;4.27;;;;;;;5.13;100.00;102728.17;1907256;75;26257;-75
2021/04/24 03:28:22;;;;;;;9.37;4.27;;;;;;;5.16;100.00;102726.38;1907332;75;26591;-74
2021/04/24 03:30:51;;;;;;;9.20;4.37;;;;;;;5.17;100.00;102728.62;1907371;75;26198;-74
2021/04/24 03:33:21;;;;;;;7.20;4.20;;;;;;;5.08;100.00;102722.42;1907257;75;26256;-74
2021/04/24 03:35:51;;;;;;;10.87;4.17;;;;;;;5.08;100.00;102727.93;1907313;75;26195;-74
2021/04/24 03:38:21;;;;;;;7.70;4.30;;;;;;;5.26;100.00;102726.02;1907344;75;26334;-74
2021/04/24 03:41:09;;;;;;;5.93;3.87;;;;;;;4.89;100.00;102728.13;1845028;77;33215;-75
2021/04/24 03:43:40;;;;;;;8.20;3.73;;;;;;;4.91;100.00;102732.06;1837162;78;26235;-75
2021/04/24 03:46:09;;;;;;;6.70;4.17;;;;;;;4.85;100.00;102730.09;1805528;79;26300;-75
2021/04/24 03:48:39;;;;;;;7.27;4.07;;;;;;;4.75;100.00;102742.02;1837276;78;26274;-75
2021/04/24 03:51:09;;;;;;;6.50;3.97;;;;;;;4.86;100.00;102741.45;1837333;78;26660;-75
2021/04/24 03:53:39;;;;;;;8.17;3.80;;;;;;;4.93;100.00;102734.92;1837195;78;26290;-75
2021/04/24 03:56:09;;;;;;;11.27;4.83;;;;;;;4.79;100.00;102733.68;1837224;78;26290;-75
2021/04/24 03:58:39;;;;;;;6.73;4.53;;;;;;;4.71;100.00;102737.94;1837171;78;26327;-75
2021/04/24 04:01:09;;;;;;;8.93;4.13;;;;;;;4.76;100.00;102735.44;1826306;78;930579;-75
2021/04/24 04:03:38;;;;;;;8.43;4.30;;;;;;;4.76;100.00;102740.41;1839676;77;26318;-75
2021/04/24 04:06:08;;;;;;;11.03;4.77;;;;;;;4.79;100.00;102739.19;1839590;78;26399;-74
2021/04/24 04:08:38;;;;;;;7.40;4.43;;;;;;;4.77;100.00;102728.88;1839530;78;26260;-74
2021/04/24 04:11:08;;;;;;;8.23;4.40;;;;;;;4.84;100.00;102730.63;1839490;76;26374;-75
2021/04/24 04:13:38;;;;;;;8.57;4.60;;;;;;;4.85;100.00;102735.61;1874513;76;26716;-75
2021/04/24 04:16:08;;;;;;;9.63;4.37;;;;;;;4.88;100.00;102740.18;1906689;75;26229;-75
2021/04/24 04:18:38;;;;;;;8.53;4.50;;;;;;;4.92;100.00;102738.72;1906724;75;26755;-75
2021/04/24 04:21:07;;;;;;;8.47;4.90;;;;;;;4.90;100.00;102734.48;1903948;75;26695;-75
2021/04/24 04:23:37;;;;;;;9.90;4.80;;;;;;;4.95;100.00;102739.72;1903886;75;26317;-75
2021/04/24 04:26:08;;;;;;;11.00;5.10;;;;;;;4.87;100.00;102739.02;1906681;75;26278;-76
2021/04/24 04:28:38;;;;;;;7.90;5.00;;;;;;;4.78;100.00;102739.70;1906672;75;26340;-76
2021/04/24 04:31:08;;;;;;;9.47;4.87;;;;;;;4.72;100.00;102745.14;1906655;75;26222;-75
2021/04/24 04:33:38;;;;;;;10.27;4.97;;;;;;;4.61;100.00;102748.46;1906653;75;26262;-76
2021/04/24 04:36:08;;;;;;;8.77;4.80;;;;;;;4.64;100.00;102744.78;1906547;75;26797;-76
2021/04/24 04:38:37;;;;;;;7.87;4.70;;;;;;;4.47;100.00;102744.74;1906683;75;26750;-76
2021/04/24 04:41:08;;;;;;;9.20;5.10;;;;;;;4.62;100.00;102752.37;1906711;75;26220;-76
2021/04/24 04:43:38;;;;;;;8.10;4.77;;;;;;;4.47;100.00;102753.00;1951528;73;26243;-76
2021/04/24 04:46:08;;;;;;;8.93;4.63;;;;;;;4.48;100.00;102751.44;1951531;73;26251;-75
2021/04/24 04:48:38;;;;;;;11.00;5.00;;;;;;;4.64;100.00;102751.66;1951401;73;26432;-76
2021/04/24 04:51:08;;;;;;;9.17;4.30;;;;;;;4.54;100.00;102753.38;1889364;75;26278;-76
2021/04/24 04:53:38;;;;;;;9.60;5.00;;;;;;;4.63;100.00;102759.58;1951472;73;26243;-76
2021/04/24 04:56:08;;;;;;;9.50;4.90;;;;;;;4.67;100.00;102756.75;1886882;75;26214;-76
2021/04/24 04:58:37;;;;;;;9.83;4.47;;;;;;;4.70;100.00;102761.88;1906612;75;26379;-76
2021/04/24 05:01:07;;;;;;;7.63;4.87;;;;;;;4.59;100.00;102760.52;1906601;75;26246;-76
2021/04/24 05:03:38;;;;;;;10.23;4.67;;;;;;;4.36;100.00;102768.67;1906561;75;26218;-76
2021/04/24 05:06:08;;;;;;;10.60;4.87;;;;;;;4.26;100.00;102769.00;1906601;75;26227;-76
2021/04/24 05:08:38;;;;;;;10.03;5.13;;;;;;;4.34;100.00;102767.48;1906637;75;26317;-76
2021/04/24 05:11:08;;;;;;;13.27;6.30;;;;;;;4.32;100.00;102759.94;1906540;74;26438;-76
2021/04/24 05:13:38;;;;;;;8.03;5.17;;;;;;;4.47;100.00;102766.75;1906720;75;26244;-76
2021/04/24 05:16:08;;;;;;;10.13;4.27;;;;;;;4.41;100.00;102763.41;1906571;75;26873;-75
2021/04/24 05:18:38;;;;;;;10.60;5.27;;;;;;;4.50;100.00;102760.33;1906600;75;26331;-75
2021/04/24 05:21:08;;;;;;;7.70;4.53;;;;;;;4.36;100.00;102763.17;1930584;74;26285;-75
2021/04/24 05:23:38;;;;;;;8.03;5.13;;;;;;;4.45;100.00;102757.86;1945533;74;26789;-75
2021/04/24 05:26:07;;;;;;;9.33;5.10;;;;;;;4.59;100.00;102764.64;1945532;74;26273;-76
2021/04/24 05:28:37;;;;;;;11.33;5.20;;;;;;;4.55;100.00;102759.21;1945503;74;26905;-75
2021/04/24 05:31:07;;;;;;;8.37;5.20;;;;;;;4.58;100.00;102760.70;1881917;75;26260;-75
2021/04/24 05:33:37;;;;;;;10.23;5.23;;;;;;;4.49;100.00;102760.55;1951837;73;26179;-75
2021/04/24 05:36:10;;;;;;;10.07;4.90;;;;;;;4.52;100.00;102765.64;1951818;73;26308;-76
2021/04/24 05:38:39;;;;;;;10.60;4.80;;;;;;;4.62;100.00;102763.93;1951875;73;26257;-75
2021/04/24 05:41:12;;;;;;;9.60;4.97;;;;;;;4.67;100.00;102769.14;1889171;75;26698;-75
2021/04/24 05:43:41;;;;;;;11.37;5.50;;;;;;;4.77;100.00;102767.42;1951600;73;26200;-76
2021/04/24 05:46:11;;;;;;;9.60;4.63;;;;;;;4.75;100.00;102765.42;1886948;75;26314;-76
2021/04/24 05:48:41;;;;;;;8.37;5.57;;;;;;;4.72;100.00;102772.67;1902527;75;26634;-76
2021/04/24 05:51:12;;;;;;;8.40;4.83;;;;;;;4.87;100.00;102769.31;1906582;75;26234;-76
2021/04/24 05:53:42;;;;;;;12.00;5.27;;;;;;;4.98;100.00;102780.62;1906552;75;26673;-75
2021/04/24 05:56:12;;;;;;;10.83;5.83;;;;;;;5.00;100.00;102779.91;1906511;75;26253;-77
2021/04/24 05:58:43;;;;;;;9.13;4.80;;;;;;;5.05;100.00;102778.75;1906603;75;26216;-74
2021/04/24 06:01:12;;;;;;;12.40;6.07;;;;;;;5.18;100.00;102775.22;1906581;75;26219;-75
2021/04/24 06:03:42;;;;;;;11.07;5.60;;;;;;;5.24;100.00;102774.95;1906531;74;26222;-75
2021/04/24 06:06:13;;;;;;;9.83;5.53;;;;;;;5.36;100.00;102776.08;1906670;75;26186;-74
2021/04/24 06:08:42;;;;;;;13.60;6.37;;;;;;;5.41;100.00;102778.55;1906764;75;26212;-74
2021/04/24 06:11:12;;;;;;;11.70;5.90;;;;;;;5.74;100.00;102781.97;1906523;74;26267;-78
2021/04/24 06:13:42;;;;;;;14.13;6.20;;;;;;;5.79;100.00;102787.20;1906568;75;26632;-77
2021/04/24 06:16:13;;;;;;;10.20;5.80;;;;;;;5.85;100.00;102789.67;1906551;75;26617;-77
2021/04/24 06:18:43;;;;;;;13.40;6.30;;;;;;;5.87;100.00;102784.29;1906566;75;26223;-76
2021/04/24 06:21:13;;;;;;;11.37;6.20;;;;;;;5.82;100.00;102788.16;1906845;75;26709;-77
2021/04/24 06:23:43;;;;;;;11.73;6.93;;;;;;;5.95;100.00;102792.90;1906667;75;26288;-77
2021/04/24 06:26:13;;;;;;;13.97;6.43;;;;;;;6.12;100.00;102790.09;1906520;75;26183;-74
2021/04/24 06:28:44;;;;;;;14.27;6.77;;;;;;;6.22;100.00;102791.07;1906577;75;26216;-76
2021/04/24 06:31:14;;;;;;;11.37;6.60;;;;;;;6.30;100.00;102795.86;1906568;75;26216;-75
2021/04/24 06:33:44;;;;;;;14.60;7.50;;;;;;;6.53;100.00;102797.39;1906552;75;26207;-75
2021/04/24 06:36:17;;;;;;;15.03;8.47;;;;;;;6.65;100.00;102788.79;1906727;75;26272;-75
2021/04/24 06:38:45;;;;;;;17.67;8.13;;;;;;;6.86;100.00;102789.42;1906292;75;26710;-75
2021/04/24 06:41:15;;;;;;;13.00;7.17;;;;;;;7.15;100.00;102788.63;1906631;75;26695;-74
2021/04/24 06:43:45;;;;;;;14.23;8.43;;;;;;;7.23;100.00;102787.05;1906543;75;26186;-75
2021/04/24 06:46:15;;;;;;;16.07;8.97;;;;;;;7.68;100.00;102784.67;1906545;75;26309;-75
2021/04/24 06:48:45;;;;;;;18.70;8.83;;;;;;;8.00;100.00;102778.65;1906626;75;26294;-75
2021/04/24 06:51:15;;;;;;;15.60;8.83;;;;;;;8.11;100.00;102781.27;1906631;75;26199;-75
2021/04/24 06:53:45;;;;;;;17.03;9.20;;;;;;;8.37;100.00;102788.06;1906667;75;26207;-75
2021/04/24 06:56:15;;;;;;;16.60;9.00;;;;;;;8.47;100.00;102784.23;1934390;73;26249;-76
2021/04/24 06:58:45;;;;;;;15.27;9.40;;;;;;;8.52;100.00;102787.72;1889337;75;26304;-77
2021/04/24 07:01:15;;;;;;;17.37;9.20;;;;;;;8.60;100.00;102778.60;1951606;73;26282;-75
2021/04/24 07:03:44;;;;;;;18.97;9.87;;;;;;;8.64;100.00;102778.45;1951511;73;26267;-77
2021/04/24 07:06:14;;;;;;;22.03;10.03;;;;;;;8.59;100.00;102791.31;1889316;75;26316;-75
2021/04/24 07:08:44;;;;;;;14.33;9.00;;;;;;;8.72;100.00;102787.59;1951507;73;26724;-75
2021/04/24 07:11:14;;;;;;;17.27;9.60;;;;;;;8.89;100.00;102789.57;1889237;75;26215;-76
2021/04/24 07:13:44;;;;;;;19.00;9.37;;;;;;;9.00;100.00;102786.05;1951643;72;26285;-76
2021/04/24 07:16:14;;;;;;;19.63;9.57;;;;;;;9.09;100.00;102787.45;1951573;73;26219;-75
2021/04/24 07:18:44;;;;;;;21.53;10.63;;;;;;;9.22;100.00;102779.53;1889262;75;26285;-74
2021/04/24 07:21:14;;;;;;;19.67;10.67;;;;;;;9.14;100.00;102777.91;1951566;73;26285;-77
2021/04/24 07:23:44;;;;;;;16.00;10.83;;;;;;;9.37;100.00;102777.22;1951477;73;26671;-77
2021/04/24 07:26:16;;;;;;;17.23;10.43;;;;;;;9.64;100.00;102778.30;1951584;73;26217;-77
2021/04/24 07:28:46;;;;;;;22.00;9.80;;;;;;;9.71;100.00;102779.95;1951520;73;26632;-77
2021/04/24 07:31:16;;;;;;;20.30;10.80;;;;;;;9.84;100.00;102778.36;1889270;75;26818;-76
2021/04/24 07:33:46;;;;;;;18.53;9.53;;;;;;;9.92;100.00;102785.02;1951574;73;26317;-77
2021/04/24 07:36:18;;;;;;;17.43;10.17;;;;;;;10.20;100.00;102776.63;1889319;75;26223;-79
2021/04/24 07:38:48;;;;;;;18.53;10.50;;;;;;;10.26;100.00;102777.94;1952009;73;26278;-77
2021/04/24 07:41:19;;;;;;;15.10;9.33;;;;;;;10.48;100.00;102779.06;1952223;73;26302;-78
2021/04/24 07:43:49;;;;;;;20.00;10.47;;;;;;;10.73;100.00;102772.49;1952031;73;26667;-78
2021/04/24 07:46:19;;;;;;;16.47;10.47;;;;;;;10.98;100.00;102767.56;1951651;73;26664;-78
2021/04/24 07:48:49;;;;;;;19.17;11.27;;;;;;;11.31;100.00;102771.95;1951776;73;26756;-79
2021/04/24 07:51:18;;;;;;;15.93;9.23;;;;;;;11.55;100.00;102771.36;1952250;73;26668;-77
2021/04/24 07:53:48;;;;;;;16.53;9.40;;;;;;;11.55;100.00;102758.84;1889868;75;26303;-77
2021/04/24 07:56:18;;;;;;;15.60;8.93;;;;;;;11.94;100.00;102757.18;1952060;73;26181;-78
2021/04/24 07:58:49;;;;;;;16.80;9.17;;;;;;;12.05;100.00;102754.06;1889369;75;26203;-77
2021/04/24 08:01:19;;;;;;;19.77;9.37;;;;;;;12.18;100.00;102752.37;1951556;73;26317;-78
2021/04/24 08:03:49;;;;;;;13.37;8.30;;;;;;;12.38;100.00;102749.95;1885892;75;26215;-78
2021/04/24 08:06:18;;;;;;;12.37;9.07;;;;;;;12.43;100.00;102744.48;1902549;75;26710;-77
2021/04/24 08:08:50;;;;;;;15.57;8.83;;;;;;;12.57;100.00;102743.61;1906749;75;26287;-77
2021/04/24 08:11:20;;;;;;;16.43;8.00;;;;;;;12.76;100.00;102731.94;1906710;75;26681;-77
2021/04/24 08:13:50;;;;;;;12.60;8.30;;;;;;;12.84;100.00;102739.58;1906783;74;26765;-77
2021/04/24 08:16:20;;;;;;;17.67;9.87;;;;;;;12.85;100.00;102735.14;1906816;75;26251;-77
2021/04/24 08:18:49;;;;;;;17.30;8.47;;;;;;;13.09;100.00;102733.84;1906717;75;26735;-77
2021/04/24 08:21:20;;;;;;;13.20;7.77;;;;;;;13.15;100.00;102734.80;1906747;75;26215;-77
2021/04/24 08:23:57;;;;;;;14.77;7.97;;;;;;;13.36;100.00;102735.38;1906913;75;26199;-77
2021/04/24 08:26:22;;;;;;;16.27;7.57;;;;;;;13.23;100.00;102742.73;1905817;75;26258;-77
2021/04/24 08:28:52;;;;;;;13.97;8.00;;;;;;;13.50;100.00;102748.42;1907457;75;26426;-77
2021/04/24 08:31:21;;;;;;;11.57;7.07;;;;;;;13.40;100.00;102744.08;1907508;75;26251;-77
2021/04/24 08:33:52;;;;;;;10.77;7.37;;;;;;;13.69;100.00;102748.41;1907247;75;26247;-77
2021/04/24 08:36:21;;;;;;;11.47;7.03;;;;;;;13.79;100.00;102747.67;1907636;75;26221;-78
2021/04/24 08:38:51;;;;;;;13.13;6.90;;;;;;;13.90;100.00;102748.95;1907376;75;26324;-76
2021/04/24 08:41:22;;;;;;;12.67;6.67;;;;;;;14.07;100.00;102741.87;1906901;75;26226;-78
2021/04/24 08:43:56;;;;;;;11.13;6.87;;;;;;;14.19;100.00;102746.75;1906623;75;26325;-78
2021/04/24 08:46:26;;;;;;;10.37;5.87;;;;;;;14.20;100.00;102737.81;1906683;75;26285;-79
2021/04/24 08:48:58;;;;;;;8.97;5.90;;;;;;;14.26;100.00;102740.38;1906765;75;26219;-76
2021/04/24 08:51:31;;;;;;;8.77;6.17;;;;;;;14.31;100.00;102744.63;1906635;75;26227;-77
2021/04/24 08:54:01;;;;;;;10.20;5.80;;;;;;;14.19;100.00;102741.16;1906719;75;26671;-78
2021/04/24 08:56:31;;;;;;;10.93;6.30;;;;;;;14.43;100.00;102744.49;1906701;75;26228;-77
2021/04/24 08:59:01;;;;;;;11.03;6.30;;;;;;;14.40;100.00;102738.04;1906540;75;26234;-78
2021/04/24 09:01:31;;;;;;;10.73;6.10;;;;;;;14.31;100.00;102743.23;1906707;75;26304;-78
2021/04/24 09:04:01;;;;;;;11.20;5.67;;;;;;;14.57;100.00;102738.21;1906628;75;26339;-77
2021/04/24 09:06:33;;;;;;;8.23;6.00;;;;;;;14.72;100.00;102740.27;1906608;75;26737;-79
2021/04/24 09:09:05;;;;;;;9.23;5.80;;;;;;;15.01;100.00;102736.61;1906719;75;26212;-77
2021/04/24 09:11:42;;;;;;;9.40;5.73;;;;;;;14.58;100.00;102742.70;1906664;75;26212;-77
2021/04/24 09:14:14;;;;;;;9.90;6.50;;;;;;;14.86;100.00;102731.72;1906575;74;26396;-78
2021/04/24 09:16:45;;;;;;;11.37;6.20;;;;;;;14.91;100.00;102728.13;1906760;75;26678;-78
2021/04/24 09:19:29;;;;;;;9.17;5.43;;;;;;;14.90;100.00;102727.28;1906721;75;26206;-79
2021/04/24 09:22:20;;;;;;;13.63;6.73;;;;;;;15.00;100.00;102712.52;1906748;75;26297;-77
2021/04/24 09:24:52;;;;;;;11.03;6.63;;;;;;;14.95;100.00;102716.12;1906926;75;26207;-77
2021/04/24 09:27:30;;;;;;;14.23;6.13;;;;;;;15.18;100.00;102723.28;1906635;75;26251;-78
2021/04/24 09:30:20;;;;;;;10.43;6.83;;;;;;;15.12;100.00;102717.35;1902950;75;26215;-77
2021/04/24 09:32:51;;;;;;;12.17;6.07;;;;;;;15.03;100.00;102720.37;1906679;75;26638;-77
2021/04/24 09:35:21;;;;;;;10.53;5.83;;;;;;;15.30;100.00;102719.70;1906661;75;26207;-75
2021/04/24 09:37:59;;;;;;;9.87;5.83;;;;;;;15.46;100.00;102705.22;1906537;75;26298;-76
2021/04/24 09:40:30;;;;;;;8.97;5.40;;;;;;;15.47;100.00;102697.95;1906928;75;26268;-76
2021/04/24 09:43:02;;;;;;;9.17;5.67;;;;;;;15.34;100.00;102706.00;1906598;75;26774;-77
2021/04/24 09:45:36;;;;;;;8.43;5.23;;;;;;;15.21;100.00;102701.73;1906708;75;26267;-75
2021/04/24 09:48:10;;;;;;;10.33;4.70;;;;;;;15.25;100.00;102704.27;1906652;75;26324;-75
2021/04/24 09:50:40;;;;;;;5.90;4.67;;;;;;;15.28;100.00;102702.32;1905283;75;26198;-75
2021/04/24 09:53:18;;;;;;;7.33;4.60;;;;;;;15.37;100.00;102704.05;1906608;75;26264;-75
2021/04/24 09:55:51;;;;;;;6.20;4.53;;;;;;;15.46;100.00;102694.86;1906621;75;26183;-76
2021/04/24 09:58:33;;;;;;;6.53;4.67;;;;;;;15.56;100.00;102692.70;1906648;75;26348;-78
2021/04/24 10:01:21;;;;;;;8.57;4.87;;;;;;;15.48;100.00;102697.39;1906956;75;26216;-76
2021/04/24 10:03:52;;;;;;;7.73;4.40;;;;;;;15.27;100.00;102695.06;1906710;74;26387;-76
2021/04/24 10:06:34;;;;;;;7.67;4.43;;;;;;;15.33;100.00;102688.35;1906778;75;26216;-76
2021/04/24 10:09:20;;;;;;;6.17;4.77;;;;;;;15.31;100.00;102685.55;1907042;75;26211;-76
2021/04/24 10:11:54;;;;;;;8.40;4.67;;;;;;;15.59;100.00;102681.48;1907135;75;26641;-77
2021/04/24 10:14:34;;;;;;;7.77;4.10;;;;;;;15.73;100.00;102682.67;1906023;75;26258;-77
2021/04/24 10:17:06;;;;;;;7.93;4.87;;;;;;;15.43;100.00;102685.61;1907153;75;26220;-77
2021/04/24 10:19:37;;;;;;;8.13;4.70;;;;;;;15.40;100.00;102689.52;1906983;75;26331;-77
2021/04/24 10:22:09;;;;;;;8.67;4.47;;;;;;;15.51;100.00;102687.06;1906963;75;26293;-78
2021/04/24 10:24:39;;;;;;;6.63;4.37;;;;;;;15.67;100.00;102687.41;1907037;75;26768;-78
2021/04/24 10:27:11;;;;;;;7.87;4.33;;;;;;;15.73;100.00;102688.27;1907168;75;26219;-77
2021/04/24 10:29:42;;;;;;;9.30;4.37;;;;;;;15.87;100.00;102689.45;1906873;75;26677;-77
2021/04/24 10:32:13;;;;;;;9.53;4.30;;;;;;;15.95;100.00;102688.91;1906747;75;26271;-77
2021/04/24 10:34:44;;;;;;;8.67;4.30;;;;;;;16.03;100.00;102689.77;1906714;75;26732;-77
2021/04/24 10:37:14;;;;;;;7.67;4.50;;;;;;;15.99;100.00;102691.44;1906744;75;26227;-77
2021/04/24 10:39:44;;;;;;;9.23;4.90;;;;;;;15.88;100.00;102703.16;1906811;75;26214;-77
2021/04/24 10:42:21;;;;;;;7.07;4.57;;;;;;;15.79;100.00;102693.60;1906764;75;26222;-77
2021/04/24 10:44:54;;;;;;;8.67;4.43;;;;;;;15.85;100.00;102687.47;1906677;75;26740;-77
2021/04/24 10:47:55;;;;;;;8.13;4.77;;;;;;;15.88;100.00;102691.95;1906789;75;26289;-77
2021/04/24 10:50:35;;;;;;;7.57;3.83;;;;;;;15.84;100.00;102696.98;1906803;75;26717;-77
2021/04/24 10:53:21;;;;;;;9.40;5.13;;;;;;;15.68;100.00;102698.91;1903831;75;26318;-77
2021/04/24 10:55:52;;;;;;;6.23;4.27;;;;;;;15.68;100.00;102689.66;1906687;75;26215;-77
2021/04/24 10:58:24;;;;;;;7.40;3.83;;;;;;;15.88;100.00;102689.70;1906710;75;26403;-77
2021/04/24 11:00:57;;;;;;;7.27;3.93;;;;;;;16.10;100.00;102688.08;1906853;75;26670;-77
2021/04/24 11:03:42;;;;;;;6.73;3.77;;;;;;;16.05;100.00;102677.69;1906610;75;26281;-77
2021/04/24 11:06:13;;;;;;;6.37;4.17;;;;;;;16.03;100.00;102673.50;1906663;75;26278;-77
2021/04/24 11:08:44;;;;;;;6.37;4.00;;;;;;;16.22;100.00;102674.63;1906708;75;26647;-78
2021/04/24 11:11:15;;;;;;;13.17;4.27;;;;;;;16.15;99.82;102672.67;1906744;75;26231;-77
2021/04/24 11:13:48;;;;;;;7.80;3.87;;;;;;;16.28;99.46;102679.13;1906649;75;26195;-78
2021/04/24 11:16:19;;;;;;;5.27;4.30;;;;;;;16.09;97.52;102676.02;1906696;75;26275;-77
2021/04/24 11:18:51;;;;;;;6.13;4.03;;;;;;;15.89;99.09;102676.83;1906641;75;26317;-77
2021/04/24 11:21:30;;;;;;;5.40;3.80;;;;;;;16.03;100.00;102677.70;1906613;75;26658;-77
2021/04/24 11:24:01;;;;;;;7.30;3.27;;;;;;;16.22;98.91;102678.28;1906626;75;26183;-77
2021/04/24 11:26:50;;;;;;;5.93;4.10;;;;;;;16.15;100.00;102674.07;1910090;75;26190;-77
2021/04/24 11:29:31;;;;;;;8.50;4.10;;;;;;;16.15;98.43;102672.11;1909698;75;26218;-77
2021/04/24 11:32:08;;;;;;;6.13;3.50;;;;;;;16.08;98.30;102671.55;1906411;75;26186;-77
2021/04/24 11:34:47;;;;;;;7.00;3.70;;;;;;;16.10;96.94;102670.70;1932172;73;26647;-77
2021/04/24 11:37:35;;;;;;;6.33;3.37;;;;;;;16.22;100.00;102682.48;1887812;75;26183;-77
2021/04/24 11:40:25;;;;;;;5.40;3.93;;;;;;;16.35;96.70;102672.12;1906700;75;26195;-77